»·PEaware :: UAL418 KBOI-KEUG

UAL418 :: KBOI-KEUG

FLIGHT INFORMATION

Flight Status: Arrived
Operator:
United Airlines
More flights by this operator :: More flights under this callsign
Pilot: Ryan L. (9775)
Aircraft: BOEING 737-800
(B738)
More flights by this aircraft type
Origin: KBOI Boise Air Terminal/Gowen
United States
Destination: KEUG Mahlon Sweet
United States
More flights between these airports :: More routes between these airports
Route: +BOI3 ILR V269 DSD V121 EUG
File this flight plan on PilotEdge
Remarks:
Altitude:
(Current/Filed)
34,000ft
Speed:
(Current/Filed)
450kts
Departed: 05-Jan-19 07:48 PM
Arrived: 05-Jan-19 08:50 PM
Distance/Time
Traveled:
304nm/1:02
Distance/Time
To Go:
Arrived

Flight Plot

Page will automatically refresh every two minutes.

Flight plan parsing failed; only flown route is shown


Map Options




Map Legend


Flown Route
Filed Route
Departure Airport
Arrival Airport
Navaid (VOR, NDB)
Fix

Horizontal Profiles

Position Reports

Time Latitude Longitude Heading Altitude Ground
Speed
05-Jan-19 19:24 43.567794 -116.219630 219 2879ft 0kts
05-Jan-19 19:25 43.567794 -116.219630 219 2879ft 0kts
05-Jan-19 19:26 43.567794 -116.219630 219 2879ft 0kts
05-Jan-19 19:27 43.567794 -116.219630 219 2879ft 0kts
05-Jan-19 19:28 43.567794 -116.219630 219 2879ft 0kts
05-Jan-19 19:29 43.567794 -116.219630 219 2879ft 0kts
05-Jan-19 19:30 43.567836 -116.219582 219 2879ft 2kts
05-Jan-19 19:31 43.568306 -116.219618 99 2879ft 2kts
05-Jan-19 19:32 43.568302 -116.219886 92 2879ft 0kts
05-Jan-19 19:33 43.568302 -116.219886 92 2879ft 0kts
05-Jan-19 19:34 43.568302 -116.219886 92 2879ft 0kts
05-Jan-19 19:35 43.568302 -116.219884 92 2879ft 0kts
05-Jan-19 19:36 43.568167 -116.217839 117 2879ft 6kts
05-Jan-19 19:37 43.567529 -116.217130 201 2879ft 3kts
05-Jan-19 19:38 43.567069 -116.217362 198 2879ft 1kts
05-Jan-19 19:39 43.565204 -116.217419 198 2879ft 8kts
05-Jan-19 19:40 43.565895 -116.220752 296 2878ft 12kts
05-Jan-19 19:41 43.567429 -116.225179 295 2879ft 10kts
05-Jan-19 19:42 43.568548 -116.228556 295 2879ft 10kts
05-Jan-19 19:43 43.570273 -116.233575 295 2879ft 18kts
05-Jan-19 19:44 43.570964 -116.236014 249 2879ft 0kts
05-Jan-19 19:45 43.570964 -116.236014 249 2879ft 0kts
05-Jan-19 19:46 43.570544 -116.236477 201 2879ft 4kts
05-Jan-19 19:47 43.565749 -116.223815 115 2879ft 132kts
05-Jan-19 19:48 43.545548 -116.169919 118 5040ft 162kts
05-Jan-19 19:49 43.525469 -116.111855 116 6743ft 197kts
05-Jan-19 19:50 43.486050 -116.078076 217 8814ft 232kts
05-Jan-19 19:51 43.478058 -116.180875 270 10641ft 315kts
05-Jan-19 19:52 43.484483 -116.300857 268 14322ft 321kts
05-Jan-19 19:53 43.490741 -116.420699 267 17305ft 335kts
05-Jan-19 19:54 43.497442 -116.551755 267 20171ft 348kts
05-Jan-19 19:55 43.504172 -116.686677 265 22717ft 360kts
05-Jan-19 19:56 43.510930 -116.826550 264 25146ft 368kts
05-Jan-19 19:57 43.517645 -116.967869 262 27520ft 370kts
05-Jan-19 19:58 43.524240 -117.110425 261 29600ft 374kts
05-Jan-19 19:59 43.530734 -117.254476 260 31423ft 379kts
05-Jan-19 20:00 43.537134 -117.397736 260 33371ft 373kts
05-Jan-19 20:01 43.543249 -117.543830 260 33729ft 389kts
05-Jan-19 20:02 43.549474 -117.693774 260 33738ft 390kts
05-Jan-19 20:03 43.555337 -117.843837 260 33737ft 391kts
05-Jan-19 20:04 43.561039 -117.994131 260 33680ft 394kts
05-Jan-19 20:05 43.566646 -118.145960 261 33633ft 396kts
05-Jan-19 20:06 43.572100 -118.298410 261 33633ft 397kts
05-Jan-19 20:07 43.577378 -118.450945 261 33631ft 398kts
05-Jan-19 20:08 43.582467 -118.603555 261 33630ft 398kts
05-Jan-19 20:09 43.587176 -118.753595 260 33636ft 395kts
05-Jan-19 20:10 43.591679 -118.905678 261 33633ft 397kts
05-Jan-19 20:11 43.622394 -119.058915 283 33628ft 433kts
05-Jan-19 20:12 43.668322 -119.211231 280 33626ft 428kts
05-Jan-19 20:13 43.712811 -119.364368 280 33616ft 430kts
05-Jan-19 20:14 43.757390 -119.518711 281 33602ft 431kts
05-Jan-19 20:15 43.800807 -119.669910 280 33592ft 431kts
05-Jan-19 20:16 43.845470 -119.826667 280 33578ft 433kts
05-Jan-19 20:17 43.889451 -119.981934 280 33577ft 433kts
05-Jan-19 20:18 43.933345 -120.137829 280 33533ft 433kts
05-Jan-19 20:19 43.977048 -120.293974 281 33485ft 433kts
05-Jan-19 20:20 44.020718 -120.450986 281 33486ft 435kts
05-Jan-19 20:21 44.064216 -120.608302 281 33483ft 434kts
05-Jan-19 20:22 44.106531 -120.762415 280 33472ft 433kts
05-Jan-19 20:23 44.149214 -120.919007 281 32507ft 435kts
05-Jan-19 20:24 44.192325 -121.078195 282 30305ft 443kts
05-Jan-19 20:25 44.234498 -121.234046 283 26902ft 410kts
05-Jan-19 20:26 44.262896 -121.379591 259 24522ft 370kts
05-Jan-19 20:27 44.239563 -121.514695 259 22820ft 371kts
05-Jan-19 20:28 44.230970 -121.654013 258 20622ft 348kts
05-Jan-19 20:29 44.222758 -121.784438 258 18553ft 328kts
05-Jan-19 20:31 44.214884 -121.907118 257 16597ft 310kts
05-Jan-19 20:32 44.207241 -122.023927 257 14768ft 308kts
05-Jan-19 20:33 44.199531 -122.139810 257 12916ft 293kts
05-Jan-19 20:34 44.192002 -122.250943 256 11191ft 304kts
05-Jan-19 20:35 44.183842 -122.368450 257 10994ft 305kts
05-Jan-19 20:36 44.175892 -122.484033 256 10879ft 275kts
05-Jan-19 20:37 44.172244 -122.590979 279 8881ft 299kts
05-Jan-19 20:38 44.221053 -122.687354 304 7513ft 300kts
05-Jan-19 20:39 44.271957 -122.776870 304 6189ft 290kts
05-Jan-19 20:40 44.320401 -122.864835 304 5012ft 281kts
05-Jan-19 20:41 44.368499 -122.952487 304 4513ft 282kts
05-Jan-19 20:42 44.414385 -123.036519 304 3924ft 260kts
05-Jan-19 20:43 44.419013 -123.128395 255 3012ft 240kts
05-Jan-19 20:44 44.380519 -123.194964 205 2535ft 230kts
05-Jan-19 20:45 44.323154 -123.223299 181 1989ft 197kts
05-Jan-19 20:46 44.273402 -123.221086 181 2000ft 167kts
05-Jan-19 20:47 44.224302 -123.220588 179 2010ft 171kts
05-Jan-19 20:48 44.183261 -123.219947 180 1342ft 138kts
05-Jan-19 20:49 44.149547 -123.219393 180 661ft 116kts
05-Jan-19 20:50 44.123964 -123.218994 179 381ft 22kts
05-Jan-19 20:51 44.120928 -123.217553 88 381ft 9kts
05-Jan-19 20:51 44.120434 -123.215512 188 382ft 7kts
05-Jan-19 20:52 44.119838 -123.214539 101 381ft 0kts
05-Jan-19 20:54 44.119838 -123.214539 101 381ft 0kts

Navigation Log

Ident Type
Flight plan parsing failed, navigation log unavailable